Terminal Aerodrome Forecast
Issued by NWS Amarillo, TX

Home | Current Version | Previous Version | Text Only | Print | Product List | Glossary On
Versions: 1 2 3 4 5 6 7 8 9 10 11 12 13 14 15
000
FTUS44 KAMA 160200 AAA
TAFGUY
TAF AMD
KGUY 160205Z 1602/1624 02008KT P6SM SCT005 OVC014
      TEMPO 1602/1605 3SM BR OVC002
     FM160500 VRB04KT 2SM BR OVC001
     FM161400 19011KT P6SM OVC004
     FM161600 19013KT P6SM SCT005 OVC020
     FM162000 19013KT P6SM SCT030 BKN120=

USA.gov is the U.S. government's official web portal to all federal, state and local government web resources and services.